Time;durP1;ratioP1;P1;durP2;ratioP2;P2;SDS_P1;SDS_P2;PMS_P1;PMS_P2;Temp;Humidity;BMP_temperature;BMP_pressure;BME280_temperature;BME280_humidity;BME280_pressure;Samples;Min_cycle;Max_cycle;Signal;HPM_P1;HPM_P2
2023/06/04 00:05:03;;;;;;;;;;;;;;;-144.98;100.00;62585.19;4920266;29;19938;-84
2023/06/04 00:08:25;;;;;;;;;;;;;;;-144.98;100.00;62585.19;4920226;29;19973;-85
2023/06/04 00:12:57;;;;;;;;;;;;;;;;;;;;;
2023/06/04 00:16:22;;;;;;;;;;;;;;;-144.98;100.00;62585.19;4919096;29;19957;-85
2023/06/04 00:19:54;;;;;;;;;;;;;;;-144.98;100.00;62585.19;4919584;29;19921;-86
2023/06/04 00:23:38;;;;;;;;;;;;;;;-144.98;100.00;62585.19;4919988;29;19926;-85
2023/06/04 00:27:23;;;;;;;;;;;;;;;;;;;;;
2023/06/04 00:30:40;;;;;;;;;;;;;;;-144.98;100.00;62585.19;4908123;29;20438;-86
2023/06/04 00:34:13;;;;;;;;;;;;;;;-144.98;100.00;62585.19;4918480;29;19975;-85
2023/06/04 00:37:28;;;;;;;;;;;;;;;-144.98;100.00;62585.19;4919478;29;19986;-84
2023/06/04 00:40:34;;;;;;;;;;;;;;;-144.98;100.00;62585.19;4918485;29;20386;-84
2023/06/04 00:43:40;;;;;;;;;;;;;;;-144.98;100.00;62585.19;4919014;29;19974;-84
2023/06/04 00:46:50;;;;;;;;;;;;;;;-144.98;100.00;62585.19;4918511;29;20044;-84
2023/06/04 00:49:59;;;;;;;;;;;;;;;-144.98;100.00;62585.19;4919325;29;20374;-83
2023/06/04 00:53:10;;;;;;;;;;;;;;;-144.98;100.00;62585.19;4919081;29;19990;-83
2023/06/04 00:56:14;;;;;;;;;;;;;;;-144.98;100.00;62585.19;4928881;29;20010;-84
2023/06/04 00:59:17;;;;;;;;;;;;;;;-144.98;100.00;62585.19;4929110;29;19921;-84
2023/06/04 01:02:23;;;;;;;;;;;;;;;-144.98;100.00;62585.19;4918087;29;19922;-83
2023/06/04 01:05:30;;;;;;;;;;;;;;;-144.98;100.00;62585.19;4917754;29;19973;-82
2023/06/04 01:08:34;;;;;;;;;;;;;;;-144.98;100.00;62585.19;4918940;29;19970;-82
2023/06/04 01:11:41;;;;;;;;;;;;;;;-144.98;100.00;62585.19;4918921;29;19926;-84
2023/06/04 01:14:46;;;;;;;;;;;;;;;-144.98;100.00;62585.19;4917881;29;19926;-84
2023/06/04 01:18:02;;;;;;;;;;;;;;;-144.98;100.00;62585.19;4918709;29;19922;-84
2023/06/04 01:21:07;;;;;;;;;;;;;;;-144.98;100.00;62585.19;4918363;29;19922;-83
2023/06/04 01:24:32;;;;;;;;;;;;;;;-144.98;100.00;62585.19;4917662;29;20029;-83
2023/06/04 01:27:35;;;;;;;;;;;;;;;-144.98;100.00;62585.19;4917869;29;20315;-83
2023/06/04 01:30:45;;;;;;;;;;;;;;;-144.98;100.00;62585.19;4917657;29;19921;-82
2023/06/04 01:33:57;;;;;;;;;;;;;;;-144.98;100.00;62585.19;4917497;29;20331;-82
2023/06/04 01:37:01;;;;;;;;;;;;;;;-144.98;100.00;62585.19;4918075;29;20385;-82
2023/06/04 01:40:08;;;;;;;;;;;;;;;-144.98;100.00;62585.19;4917459;29;19921;-83
2023/06/04 01:43:11;;;;;;;;;;;;;;;-144.98;100.00;62585.19;4917892;29;19922;-84
2023/06/04 01:46:17;;;;;;;;;;;;;;;-144.98;100.00;62585.19;4917656;29;20017;-84
2023/06/04 01:49:30;;;;;;;;;;;;;;;-144.98;100.00;62585.19;4917853;29;20374;-83
2023/06/04 01:52:37;;;;;;;;;;;;;;;-144.98;100.00;62585.19;4917007;29;20311;-84
2023/06/04 01:55:43;;;;;;;;;;;;;;;-144.98;100.00;62585.19;4917199;29;19939;-83
2023/06/04 01:58:46;;;;;;;;;;;;;;;-144.98;100.00;62585.19;4918012;29;19929;-85
2023/06/04 02:01:49;;;;;;;;;;;;;;;-144.98;100.00;62585.19;4927853;29;19921;-84
2023/06/04 02:04:55;;;;;;;;;;;;;;;-144.98;100.00;62585.19;4917383;29;20006;-84
2023/06/04 02:08:01;;;;;;;;;;;;;;;-144.98;100.00;62585.19;4916909;29;19926;-83
2023/06/04 02:11:18;;;;;;;;;;;;;;;-144.98;100.00;62585.19;4917164;29;20407;-84
2023/06/04 02:14:25;;;;;;;;;;;;;;;-144.98;100.00;62585.19;4917260;29;19980;-84
2023/06/04 02:17:32;;;;;;;;;;;;;;;-144.98;100.00;62585.19;4917388;29;19971;-84
2023/06/04 02:20:35;;;;;;;;;;;;;;;-144.98;100.00;62585.19;4916367;29;19927;-84
2023/06/04 02:23:40;;;;;;;;;;;;;;;-144.98;100.00;62585.19;4917578;29;19970;-85
2023/06/04 02:26:47;;;;;;;;;;;;;;;-144.98;100.00;62585.19;4917516;29;20018;-84
2023/06/04 02:30:03;;;;;;;;;;;;;;;-144.98;100.00;62585.19;4917479;29;19922;-85
2023/06/04 02:33:11;;;;;;;;;;;;;;;-144.98;100.00;62585.19;4917395;29;19974;-85
2023/06/04 02:36:20;;;;;;;;;;;;;;;-144.98;100.00;62585.19;4916728;29;19969;-84
2023/06/04 02:39:26;;;;;;;;;;;;;;;-144.98;100.00;62585.19;4917125;29;19922;-85
2023/06/04 02:42:39;;;;;;;;;;;;;;;-144.98;100.00;62585.19;4916481;29;20287;-84
2023/06/04 02:45:59;;;;;;;;;;;;;;;;;;;;;
2023/06/04 03:07:58;;;;;;;;;;;;;;;-144.98;100.00;62585.19;4063887;27;19923;-85
2023/06/04 03:11:07;;;;;;;;;;;;;;;-144.98;100.00;62585.19;4906359;29;20349;-85
2023/06/04 03:14:50;;;;;;;;;;;;;;;-144.98;100.00;62585.19;4917244;29;19974;-85
2023/06/04 03:17:57;;;;;;;;;;;;;;;-144.98;100.00;62585.19;4916916;29;19922;-85
2023/06/04 03:22:39;;;;;;;;;;;;;;;-144.98;100.00;62585.19;4901944;29;20045;-86
2023/06/04 03:54:08;;;;;;;;;;;;;;;-144.98;100.00;62585.19;4920314;29;20327;-85
2023/06/04 03:57:20;;;;;;;;;;;;;;;-144.98;100.00;62585.19;4919440;29;20035;-85
2023/06/04 04:00:30;;;;;;;;;;;;;;;-144.98;100.00;62585.19;4908352;29;19969;-83
2023/06/04 04:03:36;;;;;;;;;;;;;;;-144.98;100.00;62585.19;4908343;29;19974;-83
2023/06/04 04:06:44;;;;;;;;;;;;;;;-144.98;100.00;62585.19;4908782;29;20299;-84
2023/06/04 04:09:51;;;;;;;;;;;;;;;-144.98;100.00;62585.19;4908285;29;19922;-84
2023/06/04 04:12:57;;;;;;;;;;;;;;;-144.98;100.00;62585.19;4908231;29;19926;-84
2023/06/04 04:16:01;;;;;;;;;;;;;;;-144.98;100.00;62585.19;4908110;29;19922;-84
2023/06/04 04:19:07;;;;;;;;;;;;;;;-144.98;100.00;62585.19;4907969;29;19922;-84
2023/06/04 04:22:11;;;;;;;;;;;;;;;-144.98;100.00;62585.19;4897592;29;19996;-84
2023/06/04 04:25:15;;;;;;;;;;;;;;;-144.98;100.00;62585.19;4907885;29;20340;-84
2023/06/04 04:28:21;;;;;;;;;;;;;;;-144.98;100.00;62585.19;4908308;29;19922;-83
2023/06/04 04:31:28;;;;;;;;;;;;;;;-144.98;100.00;62585.19;4897376;29;20343;-84
2023/06/04 04:34:34;;;;;;;;;;;;;;;-144.98;100.00;62585.19;4907958;29;19921;-83
2023/06/04 04:37:41;;;;;;;;;;;;;;;-144.98;100.00;62585.19;4907644;29;19926;-84
2023/06/04 04:44:35;;;;;;;;;;;;;;;-144.98;100.00;62585.19;4907145;29;20010;-84
2023/06/04 04:48:07;;;;;;;;;;;;;;;-144.98;100.00;62585.19;4907500;29;20005;-85
2023/06/04 04:51:27;;;;;;;;;;;;;;;-144.98;100.00;62585.19;4908151;29;19922;-85
2023/06/04 04:54:40;;;;;;;;;;;;;;;-144.98;100.00;62585.19;4907365;29;20324;-85
2023/06/04 04:58:09;;;;;;;;;;;;;;;-144.98;100.00;62585.19;4918872;29;20006;-84
2023/06/04 05:01:25;;;;;;;;;;;;;;;-144.98;100.00;62585.19;4907308;29;19931;-85
2023/06/04 05:04:36;;;;;;;;;;;;;;;-144.98;100.00;62585.19;4895625;29;19922;-85
2023/06/04 05:08:06;;;;;;;;;;;;;;;-144.98;100.00;62585.19;4899028;29;19957;-85
2023/06/04 05:11:59;;;;;;;;;;;;;;;;;;;;;
2023/06/04 05:15:39;;;;;;;;;;;;;;;;;;;;;
2023/06/04 05:19:06;;;;;;;;;;;;;;;-144.98;100.00;62585.19;4898874;29;19966;-87
2023/06/04 05:22:32;;;;;;;;;;;;;;;;;;;;;
2023/06/04 05:26:32;;;;;;;;;;;;;;;;;;;;;
2023/06/04 05:30:33;;;;;;;;;;;;;;;-144.98;100.00;62585.19;4822721;29;19965;-83
2023/06/04 05:38:30;;;;;;;;;;;;;;;-144.98;100.00;62585.19;4805174;29;19929;-84
2023/06/04 05:41:40;;;;;;;;;;;;;;;-144.98;100.00;62585.19;4826601;29;20444;-84
2023/06/04 05:45:05;;;;;;;;;;;;;;;-144.98;100.00;62585.19;4890038;29;20398;-83
2023/06/04 05:48:09;;;;;;;;;;;;;;;-144.98;100.00;62585.19;4899018;29;19970;-82
2023/06/04 05:51:13;;;;;;;;;;;;;;;-144.98;100.00;62585.19;4898981;29;19923;-82
2023/06/04 05:54:17;;;;;;;;;;;;;;;-144.98;100.00;62585.19;4898676;29;19926;-82
2023/06/04 05:57:21;;;;;;;;;;;;;;;-144.98;100.00;62585.19;4898326;29;19922;-82
2023/06/04 06:00:25;;;;;;;;;;;;;;;-144.98;100.00;62585.19;4887302;29;19938;-82
2023/06/04 06:03:29;;;;;;;;;;;;;;;-144.98;100.00;62585.19;4898464;29;19923;-82
2023/06/04 06:06:33;;;;;;;;;;;;;;;-144.98;100.00;62585.19;4902957;29;20053;-82
2023/06/04 06:09:36;;;;;;;;;;;;;;;-144.98;100.00;62585.19;4906011;29;19922;-80
2023/06/04 06:12:39;;;;;;;;;;;;;;;-144.98;100.00;62585.19;4906042;29;19926;-81
2023/06/04 06:15:45;;;;;;;;;;;;;;;-144.98;100.00;62585.19;4905503;29;19922;-84
2023/06/04 06:18:49;;;;;;;;;;;;;;;-144.98;100.00;62585.19;4917688;29;19922;-83
2023/06/04 06:21:52;;;;;;;;;;;;;;;-144.98;100.00;62585.19;4905093;29;20153;-84
2023/06/04 06:24:57;;;;;;;;;;;;;;;-144.98;100.00;62585.19;4905080;29;19922;-81
2023/06/04 06:28:04;;;;;;;;;;;;;;;-144.98;100.00;62585.19;4932850;29;19921;-81
2023/06/04 06:31:08;;;;;;;;;;;;;;;-144.98;100.00;62585.19;4924882;29;19922;-81
2023/06/04 06:34:11;;;;;;;;;;;;;;;-144.98;100.00;62585.19;4936673;29;19925;-85
2023/06/04 06:37:15;;;;;;;;;;;;;;;-144.98;100.00;62585.19;4936437;29;20435;-83
2023/06/04 06:40:20;;;;;;;;;;;;;;;-144.98;100.00;62585.19;4936244;29;20303;-86
2023/06/04 06:43:25;;;;;;;;;;;;;;;-144.98;100.00;62585.19;4936527;29;19926;-85
2023/06/04 06:55:22;;;;;;;;;;;;;;;-144.98;100.00;62585.19;4936091;29;20010;-84
2023/06/04 06:58:51;;;;;;;;;;;;;;;-144.98;100.00;62585.19;4936171;29;19928;-88
2023/06/04 07:01:54;;;;;;;;;;;;;;;-144.98;100.00;62585.19;4924475;29;20001;-84
2023/06/04 07:04:58;;;;;;;;;;;;;;;-144.98;100.00;62585.19;4934461;29;20346;-84
2023/06/04 07:08:02;;;;;;;;;;;;;;;-144.98;100.00;62585.19;4933992;29;19965;-84
2023/06/04 07:11:13;;;;;;;;;;;;;;;-144.98;100.00;62585.19;4935932;29;20058;-84
2023/06/04 07:15:15;;;;;;;;;;;;;;;-144.98;100.00;62585.19;4936387;29;20338;-80
2023/06/04 07:18:25;;;;;;;;;;;;;;;-144.98;100.00;62585.19;4936219;29;19922;-85
2023/06/04 07:21:28;;;;;;;;;;;;;;;-144.98;100.00;62585.19;4935862;29;19969;-81
2023/06/04 07:24:35;;;;;;;;;;;;;;;-144.98;100.00;62585.19;4935939;29;19922;-83
2023/06/04 07:27:41;;;;;;;;;;;;;;;-144.98;100.00;62585.19;4938819;29;19922;-83
2023/06/04 07:30:47;;;;;;;;;;;;;;;-144.98;100.00;62585.19;4939693;29;20052;-80
2023/06/04 07:33:50;;;;;;;;;;;;;;;-144.98;100.00;62585.19;4939678;29;19930;-83
2023/06/04 07:36:55;;;;;;;;;;;;;;;-144.98;100.00;62585.19;4939892;29;19922;-87
2023/06/04 07:40:04;;;;;;;;;;;;;;;-144.98;100.00;62585.19;4927776;29;19925;-86
2023/06/04 07:43:10;;;;;;;;;;;;;;;-144.98;100.00;62585.19;4939542;29;19921;-86
2023/06/04 07:50:13;;;;;;;;;;;;;;;-144.98;100.00;62585.19;4939721;29;19969;-87
2023/06/04 08:05:02;;;;;;;;;;;;;;;-144.98;100.00;62585.19;5861684;23;19927;-85
2023/06/04 08:08:05;;;;;;;;;;;;;;;-144.98;100.00;62585.19;4939032;29;19921;-83
2023/06/04 08:15:18;;;;;;;;;;;;;;;-144.98;100.00;62585.19;4917573;29;19926;-83
2023/06/04 08:19:25;;;;;;;;;;;;;;;;;;;;;
2023/06/04 08:38:03;;;;;;;;;;;;;;;-144.98;100.00;62585.19;4916899;29;19915;-90
2023/06/04 08:46:42;;;;;;;;;;;;;;;;;;;;;
2023/06/04 08:50:09;;;;;;;;;;;;;;;-144.98;100.00;62585.19;4922315;29;20100;-84
2023/06/04 08:54:00;;;;;;;;;;;;;;;;;;;;;
2023/06/04 09:49:43;;;;;;;;;;;;;;;-144.98;100.00;62585.19;5746767;23;20990;-83
2023/06/04 09:56:21;;;;;;;;;;;;;;;-144.98;100.00;62585.19;4862213;29;19927;-85
2023/06/04 10:03:05;;;;;;;;;;;;;;;-144.98;100.00;62585.19;4760187;27;19928;-89
2023/06/04 10:06:10;;;;;;;;;;;;;;;-144.98;100.00;62585.19;4861937;29;19966;-83
2023/06/04 10:09:45;;;;;;;;;;;;;;;-144.98;100.00;62585.19;4861774;29;20425;-89
2023/06/04 10:13:01;;;;;;;;;;;;;;;-144.98;100.00;62585.19;4861827;29;20293;-86
2023/06/04 10:20:26;;;;;;;;;;;;;;;-144.98;100.00;62585.19;4861588;29;20296;-87
2023/06/04 10:27:09;;;;;;;;;;;;;;;-144.98;100.00;62585.19;4849596;29;20289;-89
2023/06/04 10:30:15;;;;;;;;;;;;;;;-144.98;100.00;62585.19;4861622;29;20441;-86
2023/06/04 10:33:23;;;;;;;;;;;;;;;-144.98;100.00;62585.19;4861464;29;19927;-84
2023/06/04 10:36:28;;;;;;;;;;;;;;;-144.98;100.00;62585.19;4861730;29;19923;-80
2023/06/04 10:39:32;;;;;;;;;;;;;;;-144.98;100.00;62585.19;4861269;29;19930;-83
2023/06/04 10:42:44;;;;;;;;;;;;;;;-144.98;100.00;62585.19;4861304;29;19967;-84
2023/06/04 10:45:50;;;;;;;;;;;;;;;-144.98;100.00;62585.19;4861425;29;19976;-86
2023/06/04 10:48:55;;;;;;;;;;;;;;;-144.98;100.00;62585.19;4850361;29;19927;-85
2023/06/04 10:52:26;;;;;;;;;;;;;;;-144.98;100.00;62585.19;4861382;29;20015;-81
2023/06/04 11:00:12;;;;;;;;;;;;;;;-144.98;100.00;62585.19;4861054;29;19972;-83
2023/06/04 11:03:15;;;;;;;;;;;;;;;-144.98;100.00;62585.19;4842755;29;20293;-83
2023/06/04 11:06:19;;;;;;;;;;;;;;;-144.98;100.00;62585.19;4831394;29;19938;-68
2023/06/04 11:09:22;;;;;;;;;;;;;;;-144.98;100.00;62585.19;4842470;29;19978;-68
2023/06/04 11:12:26;;;;;;;;;;;;;;;-144.98;100.00;62585.19;4831091;29;19947;-75
2023/06/04 11:15:42;;;;;;;;;;;;;;;-144.98;100.00;62585.19;4842407;29;19923;-77
2023/06/04 11:18:56;;;;;;;;;;;;;;;-144.98;100.00;62585.19;4831453;29;20058;-78
2023/06/04 11:22:01;;;;;;;;;;;;;;;-144.98;100.00;62585.19;4842347;29;19923;-74
2023/06/04 11:25:05;;;;;;;;;;;;;;;-144.98;100.00;62585.19;4842340;29;20049;-73
2023/06/04 11:28:13;;;;;;;;;;;;;;;-144.98;100.00;62585.19;4842397;29;20056;-73
2023/06/04 11:31:16;;;;;;;;;;;;;;;-144.98;100.00;62585.19;4842346;29;19923;-76
2023/06/04 11:34:26;;;;;;;;;;;;;;;-144.98;100.00;62585.19;4842227;29;19976;-75
2023/06/04 11:37:32;;;;;;;;;;;;;;;-144.98;100.00;62585.19;4842244;29;19923;-75
2023/06/04 11:40:35;;;;;;;;;;;;;;;-144.98;100.00;62585.19;4842342;29;19965;-73
2023/06/04 11:43:39;;;;;;;;;;;;;;;-144.98;100.00;62585.19;4842011;29;20396;-78
2023/06/04 11:46:45;;;;;;;;;;;;;;;-144.98;100.00;62585.19;4842524;29;19964;-79
2023/06/04 11:49:53;;;;;;;;;;;;;;;-144.98;100.00;62585.19;4842364;29;19976;-82
2023/06/04 11:53:06;;;;;;;;;;;;;;;-144.98;100.00;62585.19;4842039;29;19977;-78
2023/06/04 11:56:11;;;;;;;;;;;;;;;-144.98;100.00;62585.19;4842196;29;19972;-77
2023/06/04 11:59:15;;;;;;;;;;;;;;;-144.98;100.00;62585.19;4842193;29;19968;-76
2023/06/04 12:02:18;;;;;;;;;;;;;;;-144.98;100.00;62585.19;4856937;29;19927;-74
2023/06/04 12:05:23;;;;;;;;;;;;;;;-144.98;100.00;62585.19;4860423;29;19971;-74
2023/06/04 12:08:26;;;;;;;;;;;;;;;-144.98;100.00;62585.19;4860437;29;19923;-77
2023/06/04 12:11:34;;;;;;;;;;;;;;;-144.98;100.00;62585.19;4860226;29;20305;-75
2023/06/04 12:15:07;;;;;;;;;;;;;;;-144.98;100.00;62585.19;4855430;29;19927;-79
2023/06/04 12:18:11;;;;;;;;;;;;;;;-144.98;100.00;62585.19;4864044;29;19942;-75
2023/06/04 12:21:27;;;;;;;;;;;;;;;-144.98;100.00;62585.19;4863399;29;19971;-70
2023/06/04 12:24:35;;;;;;;;;;;;;;;-144.98;100.00;62585.19;4863214;29;19944;-68
2023/06/04 12:27:46;;;;;;;;;;;;;;;-144.98;100.00;62585.19;4863496;29;19923;-69
2023/06/04 12:30:49;;;;;;;;;;;;;;;-144.98;100.00;62585.19;4863430;29;20007;-69
2023/06/04 12:33:53;;;;;;;;;;;;;;;-144.98;100.00;62585.19;4863310;29;19927;-70
2023/06/04 12:36:56;;;;;;;;;;;;;;;-144.98;100.00;62585.19;4863113;29;20060;-70
2023/06/04 12:40:04;;;;;;;;;;;;;;;-144.98;100.00;62585.19;4863062;29;19971;-70
2023/06/04 12:43:07;;;;;;;;;;;;;;;-144.98;100.00;62585.19;4863210;29;20041;-69
2023/06/04 12:46:09;;;;;;;;;;;;;;;-144.98;100.00;62585.19;4862809;29;19972;-69
2023/06/04 12:49:13;;;;;;;;;;;;;;;-144.98;100.00;62585.19;4863111;29;19960;-69
2023/06/04 12:52:16;;;;;;;;;;;;;;;-144.98;100.00;62585.19;4862901;29;19926;-68
2023/06/04 12:55:20;;;;;;;;;;;;;;;-144.98;100.00;62585.19;4863081;29;19927;-69
2023/06/04 12:58:23;;;;;;;;;;;;;;;-144.98;100.00;62585.19;4862956;29;20386;-68
2023/06/04 13:01:26;;;;;;;;;;;;;;;-144.98;100.00;62585.19;4862831;29;20410;-68
2023/06/04 13:04:29;;;;;;;;;;;;;;;-144.98;100.00;62585.19;4862898;29;20452;-77
2023/06/04 13:07:32;;;;;;;;;;;;;;;-144.98;100.00;62585.19;4862739;29;19962;-78
2023/06/04 13:10:35;;;;;;;;;;;;;;;-144.98;100.00;62585.19;4862754;29;19923;-77
2023/06/04 13:13:38;;;;;;;;;;;;;;;-144.98;100.00;62585.19;4862541;29;20288;-77
2023/06/04 13:16:41;;;;;;;;;;;;;;;-144.98;100.00;62585.19;4862609;29;19970;-76
2023/06/04 13:19:44;;;;;;;;;;;;;;;-144.98;100.00;62585.19;4862464;29;19954;-77
2023/06/04 13:22:47;;;;;;;;;;;;;;;-144.98;100.00;62585.19;4862499;29;20391;-76
2023/06/04 13:25:51;;;;;;;;;;;;;;;-144.98;100.00;62585.19;4862326;29;19927;-76
2023/06/04 13:28:56;;;;;;;;;;;;;;;-144.98;100.00;62585.19;4862770;29;19923;-77
2023/06/04 13:32:00;;;;;;;;;;;;;;;-144.98;100.00;62585.19;4862651;29;19923;-76
2023/06/04 13:35:04;;;;;;;;;;;;;;;-144.98;100.00;62585.19;4862353;29;20424;-77
2023/06/04 13:38:12;;;;;;;;;;;;;;;-144.98;100.00;62585.19;4862184;29;20312;-81
2023/06/04 13:41:17;;;;;;;;;;;;;;;-144.98;100.00;62585.19;4862300;29;20007;-81
2023/06/04 13:44:25;;;;;;;;;;;;;;;-144.98;100.00;62585.19;4862252;29;20437;-77
2023/06/04 13:47:28;;;;;;;;;;;;;;;-144.98;100.00;62585.19;4862145;29;19939;-79
2023/06/04 13:50:37;;;;;;;;;;;;;;;-144.98;100.00;62585.19;4862105;29;19923;-83
2023/06/04 13:54:15;;;;;;;;;;;;;;;-144.98;100.00;62585.19;4862052;29;19927;-91
2023/06/04 14:12:23;;;;;;;;;;;;;;;-144.98;100.00;62585.19;4802536;29;20460;-85
2023/06/04 14:29:10;;;;;;;;;;;;;;;-144.98;100.00;62585.19;4787127;29;19925;-84
2023/06/04 14:32:14;;;;;;;;;;;;;;;-144.98;100.00;62585.19;4786331;29;19961;-84
2023/06/04 15:07:42;;;;;;;;;;;;;;;-144.98;100.00;62585.19;4750251;30;19976;-83
2023/06/04 15:11:10;;;;;;;;;;;;;;;-144.98;100.00;62585.19;4696518;30;20035;-86
2023/06/04 15:14:38;;;;;;;;;;;;;;;-144.98;100.00;62585.19;4697792;30;19964;-89
2023/06/04 15:17:51;;;;;;;;;;;;;;;-144.98;100.00;62585.19;4696371;30;20007;-83
2023/06/04 15:20:56;;;;;;;;;;;;;;;-144.98;100.00;62585.19;4726723;30;19949;-83
2023/06/04 15:24:00;;;;;;;;;;;;;;;-144.98;100.00;62585.19;4764389;30;19929;-85
2023/06/04 15:27:04;;;;;;;;;;;;;;;-144.98;100.00;62585.19;4824695;29;19924;-83
2023/06/04 15:34:59;;;;;;;;;;;;;;;-144.98;100.00;62585.19;4842595;29;19923;-84
2023/06/04 15:50:52;;;;;;;;;;;;;;;-144.98;100.00;62585.19;4846023;29;19940;-82
2023/06/04 15:54:06;;;;;;;;;;;;;;;;;;;;;
2023/06/04 16:02:10;;;;;;;;;;;;;;;;;;;;;
2023/06/04 16:06:09;;;;;;;;;;;;;;;-144.98;100.00;62585.19;4837496;29;19959;-84
2023/06/04 16:14:03;;;;;;;;;;;;;;;-144.98;100.00;62585.19;4841584;29;19927;-75
2023/06/04 16:17:06;;;;;;;;;;;;;;;-144.98;100.00;62585.19;4845183;29;19922;-71
2023/06/04 16:20:09;;;;;;;;;;;;;;;-144.98;100.00;62585.19;4845202;29;20393;-70
2023/06/04 16:23:12;;;;;;;;;;;;;;;-144.98;100.00;62585.19;4845028;29;20368;-71
2023/06/04 16:26:15;;;;;;;;;;;;;;;-144.98;100.00;62585.19;4845183;29;19923;-70
2023/06/04 16:29:19;;;;;;;;;;;;;;;-144.98;100.00;62585.19;4845108;29;19976;-74
2023/06/04 16:32:22;;;;;;;;;;;;;;;-144.98;100.00;62585.19;4845070;29;19923;-69
2023/06/04 16:35:27;;;;;;;;;;;;;;;-144.98;100.00;62585.19;4845161;29;19939;-83
2023/06/04 16:38:32;;;;;;;;;;;;;;;-144.98;100.00;62585.19;4845028;29;19923;-84
2023/06/04 16:41:35;;;;;;;;;;;;;;;-144.98;100.00;62585.19;4833425;29;20288;-79
2023/06/04 16:44:38;;;;;;;;;;;;;;;-144.98;100.00;62585.19;4844863;29;19948;-81
2023/06/04 16:47:44;;;;;;;;;;;;;;;-144.98;100.00;62585.19;4845225;29;19927;-84
2023/06/04 16:51:08;;;;;;;;;;;;;;;-144.98;100.00;62585.19;4844651;29;20288;-82
2023/06/04 16:54:11;;;;;;;;;;;;;;;-144.98;100.00;62585.19;4844764;29;19973;-81
2023/06/04 16:57:15;;;;;;;;;;;;;;;-144.98;100.00;62585.19;4844712;29;19922;-85
2023/06/04 17:00:19;;;;;;;;;;;;;;;-144.98;100.00;62585.19;4843750;29;19923;-85
2023/06/04 17:03:46;;;;;;;;;;;;;;;-144.98;100.00;62585.19;4833379;29;19928;-92
2023/06/04 17:06:50;;;;;;;;;;;;;;;-144.98;100.00;62585.19;4844724;29;20387;-90
2023/06/04 17:10:18;;;;;;;;;;;;;;;-144.98;100.00;62585.19;4846037;29;19923;-84
2023/06/04 17:13:22;;;;;;;;;;;;;;;-144.98;100.00;62585.19;4844601;29;20338;-87
2023/06/04 17:16:38;;;;;;;;;;;;;;;-144.98;100.00;62585.19;4844243;29;19975;-81
2023/06/04 17:23:44;;;;;;;;;;;;;;;-144.98;100.00;62585.19;4832743;29;19927;-85
2023/06/04 17:26:48;;;;;;;;;;;;;;;-144.98;100.00;62585.19;4844240;29;20374;-81
2023/06/04 17:29:51;;;;;;;;;;;;;;;-144.98;100.00;62585.19;4844205;29;19928;-80
2023/06/04 17:32:55;;;;;;;;;;;;;;;-144.98;100.00;62585.19;4844050;29;19923;-81
2023/06/04 17:35:58;;;;;;;;;;;;;;;-144.98;100.00;62585.19;4843893;29;19923;-81
2023/06/04 17:39:01;;;;;;;;;;;;;;;-144.98;100.00;62585.19;4843881;29;19971;-83
2023/06/04 17:42:05;;;;;;;;;;;;;;;-144.98;100.00;62585.19;4832737;29;19923;-81
2023/06/04 17:45:10;;;;;;;;;;;;;;;-144.98;100.00;62585.19;4842776;29;20381;-81
2023/06/04 17:48:13;;;;;;;;;;;;;;;-144.98;100.00;62585.19;4842871;29;19923;-82
2023/06/04 17:51:18;;;;;;;;;;;;;;;-144.98;100.00;62585.19;4843589;29;19945;-81
2023/06/04 17:54:22;;;;;;;;;;;;;;;-144.98;100.00;62585.19;4843698;29;19925;-82
2023/06/04 17:57:25;;;;;;;;;;;;;;;-144.98;100.00;62585.19;4832608;29;19923;-83
2023/06/04 18:00:29;;;;;;;;;;;;;;;-144.98;100.00;62585.19;4843585;29;20334;-83
2023/06/04 18:03:32;;;;;;;;;;;;;;;-144.98;100.00;62585.19;4843493;29;19928;-81
2023/06/04 18:06:36;;;;;;;;;;;;;;;-144.98;100.00;62585.19;4844114;29;19975;-81
2023/06/04 18:09:49;;;;;;;;;;;;;;;-144.98;100.00;62585.19;4843661;29;19965;-81
2023/06/04 18:13:03;;;;;;;;;;;;;;;-144.98;100.00;62585.19;4831768;29;20282;-80
2023/06/04 18:16:10;;;;;;;;;;;;;;;-144.98;100.00;62585.19;4843163;29;19977;-81
2023/06/04 18:19:16;;;;;;;;;;;;;;;-144.98;100.00;62585.19;4843167;29;19923;-83
2023/06/04 18:22:22;;;;;;;;;;;;;;;-144.98;100.00;62585.19;4831862;29;19927;-81
2023/06/04 18:25:34;;;;;;;;;;;;;;;-144.98;100.00;62585.19;4843101;29;19944;-82
2023/06/04 18:28:41;;;;;;;;;;;;;;;-144.98;100.00;62585.19;4843356;29;19975;-82
2023/06/04 18:32:03;;;;;;;;;;;;;;;-144.98;100.00;62585.19;4843429;29;20068;-81
2023/06/04 18:35:07;;;;;;;;;;;;;;;-144.98;100.00;62585.19;4843169;29;19923;-82
2023/06/04 18:38:11;;;;;;;;;;;;;;;-144.98;100.00;62585.19;4843149;29;19944;-82
2023/06/04 18:41:15;;;;;;;;;;;;;;;-144.98;100.00;62585.19;4843504;29;19923;-80
2023/06/04 18:44:18;;;;;;;;;;;;;;;-144.98;100.00;62585.19;4843304;29;20040;-82
2023/06/04 18:47:22;;;;;;;;;;;;;;;-144.98;100.00;62585.19;4842847;29;19922;-82
2023/06/04 18:50:25;;;;;;;;;;;;;;;-144.98;100.00;62585.19;4842784;29;19971;-82
2023/06/04 18:53:31;;;;;;;;;;;;;;;-144.98;100.00;62585.19;4831579;29;20284;-84
2023/06/04 18:56:35;;;;;;;;;;;;;;;-144.98;100.00;62585.19;4842952;29;19924;-84
2023/06/04 18:59:44;;;;;;;;;;;;;;;-144.98;100.00;62585.19;4842952;29;19923;-85
2023/06/04 19:07:27;;;;;;;;;;;;;;;-144.98;100.00;62585.19;4842641;29;19923;-84
2023/06/04 19:10:37;;;;;;;;;;;;;;;-144.98;100.00;62585.19;4831724;29;20076;-86
2023/06/04 19:13:42;;;;;;;;;;;;;;;-144.98;100.00;62585.19;4842588;29;19980;-80
2023/06/04 19:16:50;;;;;;;;;;;;;;;-144.98;100.00;62585.19;4842604;29;20423;-80
2023/06/04 19:20:12;;;;;;;;;;;;;;;-144.98;100.00;62585.19;4842780;29;19923;-81
2023/06/04 19:23:36;;;;;;;;;;;;;;;-144.98;100.00;62585.19;4845005;29;20426;-80
2023/06/04 19:26:43;;;;;;;;;;;;;;;-144.98;100.00;62585.19;4846311;29;19939;-79
2023/06/04 19:29:46;;;;;;;;;;;;;;;-144.98;100.00;62585.19;4846230;29;19923;-81
2023/06/04 19:32:53;;;;;;;;;;;;;;;-144.98;100.00;62585.19;4846046;29;19927;-83
2023/06/04 19:35:56;;;;;;;;;;;;;;;-144.98;100.00;62585.19;4824486;29;19927;-82
2023/06/04 19:39:00;;;;;;;;;;;;;;;-144.98;100.00;62585.19;4845913;29;19939;-82
2023/06/04 19:42:03;;;;;;;;;;;;;;;-144.98;100.00;62585.19;4845920;29;19972;-81
2023/06/04 19:45:08;;;;;;;;;;;;;;;-144.98;100.00;62585.19;4845859;29;19923;-82
2023/06/04 19:48:12;;;;;;;;;;;;;;;-144.98;100.00;62585.19;4845763;29;19922;-83
2023/06/04 19:51:15;;;;;;;;;;;;;;;-144.98;100.00;62585.19;4845961;29;19923;-84
2023/06/04 19:54:23;;;;;;;;;;;;;;;-144.98;100.00;62585.19;4845695;29;19927;-86
2023/06/04 19:57:45;;;;;;;;;;;;;;;-144.98;100.00;62585.19;4846070;29;19964;-85
2023/06/04 20:03:48;;;;;;;;;;;;;;;-144.98;100.00;62585.19;4862380;29;19924;-81
2023/06/04 20:07:36;;;;;;;;;;;;;;;;;;;;;
2023/06/04 20:11:11;;;;;;;;;;;;;;;-144.98;100.00;62585.19;4863887;29;20020;-85
2023/06/04 20:14:36;;;;;;;;;;;;;;;;;;;;;
2023/06/04 20:19:05;;;;;;;;;;;;;;;;;;;;;
2023/06/04 20:22:59;;;;;;;;;;;;;;;-144.98;100.00;62585.19;4863636;29;19979;-86
2023/06/04 20:26:54;;;;;;;;;;;;;;;;;;;;;
2023/06/04 20:30:26;;;;;;;;;;;;;;;-144.98;100.00;62585.19;4835314;29;19923;-85
2023/06/04 20:33:48;;;;;;;;;;;;;;;-144.98;100.00;62585.19;4844411;29;19991;-86
2023/06/04 20:37:06;;;;;;;;;;;;;;;;;;;;;
2023/06/04 20:41:36;;;;;;;;;;;;;;;-144.98;100.00;62585.19;4788302;29;20463;-84
2023/06/04 20:45:53;;;;;;;;;;;;;;;-144.98;100.00;62585.19;4783628;29;19970;-84
2023/06/04 20:54:18;;;;;;;;;;;;;;;-144.98;100.00;62585.19;4835206;29;19942;-84
2023/06/04 20:57:21;;;;;;;;;;;;;;;-144.98;100.00;62585.19;4846068;29;19927;-83
2023/06/04 21:00:29;;;;;;;;;;;;;;;-144.98;100.00;62585.19;4863140;29;19922;-84
2023/06/04 21:03:35;;;;;;;;;;;;;;;-144.98;100.00;62585.19;4841295;29;19927;-84
2023/06/04 21:06:51;;;;;;;;;;;;;;;-144.98;100.00;62585.19;4863329;29;20384;-86
2023/06/04 21:09:55;;;;;;;;;;;;;;;-144.98;100.00;62585.19;4863192;29;20330;-84
2023/06/04 21:13:25;;;;;;;;;;;;;;;-144.98;100.00;62585.19;4862918;29;19926;-86